sensor_id;sensor_type;location;lat;lon;timestamp;P1;durP1;ratioP1;P2;durP2;ratioP2
64297;SDS011;50639;53.270;7.956;2022-11-14T00:01:43;34.55;;;23.90;;
64297;SDS011;50639;53.270;7.956;2022-11-14T00:04:27;34.08;;;23.20;;
64297;SDS011;50639;53.270;7.956;2022-11-14T00:07:11;43.95;;;25.13;;
64297;SDS011;50639;53.270;7.956;2022-11-14T00:09:55;34.13;;;24.52;;
64297;SDS011;50639;53.270;7.956;2022-11-14T00:12:39;37.65;;;24.02;;
64297;SDS011;50639;53.270;7.956;2022-11-14T00:15:23;35.30;;;24.52;;
64297;SDS011;50639;53.270;7.956;2022-11-14T00:18:08;42.13;;;24.77;;
64297;SDS011;50639;53.270;7.956;2022-11-14T00:20:52;36.88;;;23.60;;
64297;SDS011;50639;53.270;7.956;2022-11-14T00:23:36;39.78;;;26.10;;
64297;SDS011;50639;53.270;7.956;2022-11-14T00:26:20;34.97;;;23.85;;
64297;SDS011;50639;53.270;7.956;2022-11-14T00:29:04;40.33;;;24.52;;
64297;SDS011;50639;53.270;7.956;2022-11-14T00:31:48;34.60;;;24.30;;
64297;SDS011;50639;53.270;7.956;2022-11-14T00:34:33;34.78;;;24.50;;
64297;SDS011;50639;53.270;7.956;2022-11-14T00:37:17;36.28;;;24.52;;
64297;SDS011;50639;53.270;7.956;2022-11-14T00:40:00;34.95;;;25.35;;
64297;SDS011;50639;53.270;7.956;2022-11-14T00:42:45;35.92;;;24.75;;
64297;SDS011;50639;53.270;7.956;2022-11-14T00:45:29;35.65;;;23.77;;
64297;SDS011;50639;53.270;7.956;2022-11-14T00:48:14;39.00;;;24.85;;
64297;SDS011;50639;53.270;7.956;2022-11-14T00:50:58;37.47;;;25.90;;
64297;SDS011;50639;53.270;7.956;2022-11-14T00:53:42;37.53;;;25.45;;
64297;SDS011;50639;53.270;7.956;2022-11-14T00:56:26;35.58;;;25.63;;
64297;SDS011;50639;53.270;7.956;2022-11-14T00:59:10;39.00;;;25.98;;
64297;SDS011;50639;53.270;7.956;2022-11-14T01:01:53;36.45;;;26.10;;
64297;SDS011;50639;53.270;7.956;2022-11-14T01:04:38;38.00;;;25.20;;
64297;SDS011;50639;53.270;7.956;2022-11-14T01:07:22;41.55;;;25.98;;
64297;SDS011;50639;53.270;7.956;2022-11-14T01:10:06;39.88;;;26.08;;
64297;SDS011;50639;53.270;7.956;2022-11-14T01:12:50;39.95;;;25.60;;
64297;SDS011;50639;53.270;7.956;2022-11-14T01:15:38;36.10;;;26.35;;
64297;SDS011;50639;53.270;7.956;2022-11-14T01:18:22;39.75;;;26.70;;
64297;SDS011;50639;53.270;7.956;2022-11-14T01:21:07;39.83;;;27.35;;
64297;SDS011;50639;53.270;7.956;2022-11-14T01:23:51;38.22;;;27.17;;
64297;SDS011;50639;53.270;7.956;2022-11-14T01:26:35;41.22;;;26.83;;
64297;SDS011;50639;53.270;7.956;2022-11-14T01:29:19;44.13;;;29.35;;
64297;SDS011;50639;53.270;7.956;2022-11-14T01:32:03;36.75;;;27.25;;
64297;SDS011;50639;53.270;7.956;2022-11-14T01:34:47;43.85;;;28.20;;
64297;SDS011;50639;53.270;7.956;2022-11-14T01:37:31;41.33;;;28.38;;
64297;SDS011;50639;53.270;7.956;2022-11-14T01:40:16;45.22;;;28.40;;
64297;SDS011;50639;53.270;7.956;2022-11-14T01:46:00;46.85;;;26.77;;
64297;SDS011;50639;53.270;7.956;2022-11-14T01:48:50;44.40;;;29.48;;
64297;SDS011;50639;53.270;7.956;2022-11-14T01:51:36;47.00;;;28.83;;
64297;SDS011;50639;53.270;7.956;2022-11-14T01:57:06;46.80;;;30.33;;
64297;SDS011;50639;53.270;7.956;2022-11-14T01:59:51;46.55;;;30.85;;
64297;SDS011;50639;53.270;7.956;2022-11-14T02:02:36;46.63;;;29.75;;
64297;SDS011;50639;53.270;7.956;2022-11-14T02:05:20;52.22;;;32.10;;
64297;SDS011;50639;53.270;7.956;2022-11-14T02:08:04;53.13;;;32.38;;
64297;SDS011;50639;53.270;7.956;2022-11-14T02:10:48;51.05;;;32.92;;
64297;SDS011;50639;53.270;7.956;2022-11-14T02:13:33;49.10;;;32.60;;
64297;SDS011;50639;53.270;7.956;2022-11-14T02:16:17;52.97;;;33.08;;
64297;SDS011;50639;53.270;7.956;2022-11-14T02:19:01;44.30;;;30.15;;
64297;SDS011;50639;53.270;7.956;2022-11-14T02:21:45;41.72;;;29.48;;
64297;SDS011;50639;53.270;7.956;2022-11-14T02:24:29;48.33;;;31.73;;
64297;SDS011;50639;53.270;7.956;2022-11-14T02:27:13;47.53;;;32.00;;
64297;SDS011;50639;53.270;7.956;2022-11-14T02:30:10;48.17;;;30.55;;
64297;SDS011;50639;53.270;7.956;2022-11-14T02:32:54;47.97;;;29.83;;
64297;SDS011;50639;53.270;7.956;2022-11-14T02:35:38;46.75;;;31.67;;
64297;SDS011;50639;53.270;7.956;2022-11-14T02:38:22;42.53;;;28.92;;
64297;SDS011;50639;53.270;7.956;2022-11-14T02:41:05;40.95;;;29.38;;
64297;SDS011;50639;53.270;7.956;2022-11-14T02:43:50;45.88;;;29.70;;
64297;SDS011;50639;53.270;7.956;2022-11-14T02:46:34;39.88;;;28.33;;
64297;SDS011;50639;53.270;7.956;2022-11-14T02:49:18;41.97;;;27.65;;
64297;SDS011;50639;53.270;7.956;2022-11-14T02:52:02;37.88;;;26.13;;
64297;SDS011;50639;53.270;7.956;2022-11-14T02:54:46;40.67;;;25.70;;
64297;SDS011;50639;53.270;7.956;2022-11-14T02:57:29;36.90;;;25.52;;
64297;SDS011;50639;53.270;7.956;2022-11-14T03:00:13;37.83;;;26.23;;
64297;SDS011;50639;53.270;7.956;2022-11-14T03:02:57;34.65;;;25.45;;
64297;SDS011;50639;53.270;7.956;2022-11-14T03:05:41;36.10;;;24.80;;
64297;SDS011;50639;53.270;7.956;2022-11-14T03:08:25;35.40;;;23.85;;
64297;SDS011;50639;53.270;7.956;2022-11-14T03:11:09;39.15;;;24.95;;
64297;SDS011;50639;53.270;7.956;2022-11-14T03:13:54;35.92;;;24.83;;
64297;SDS011;50639;53.270;7.956;2022-11-14T03:16:38;32.83;;;24.40;;
64297;SDS011;50639;53.270;7.956;2022-11-14T03:19:22;38.75;;;24.05;;
64297;SDS011;50639;53.270;7.956;2022-11-14T03:22:06;35.22;;;23.80;;
64297;SDS011;50639;53.270;7.956;2022-11-14T03:24:50;37.85;;;25.33;;
64297;SDS011;50639;53.270;7.956;2022-11-14T03:27:34;36.72;;;23.83;;
64297;SDS011;50639;53.270;7.956;2022-11-14T03:30:18;38.88;;;25.25;;
64297;SDS011;50639;53.270;7.956;2022-11-14T03:33:02;35.72;;;25.05;;
64297;SDS011;50639;53.270;7.956;2022-11-14T03:35:47;32.95;;;22.48;;
64297;SDS011;50639;53.270;7.956;2022-11-14T03:38:32;35.80;;;23.55;;
64297;SDS011;50639;53.270;7.956;2022-11-14T03:41:16;35.83;;;23.50;;
64297;SDS011;50639;53.270;7.956;2022-11-14T03:44:00;36.15;;;24.10;;
64297;SDS011;50639;53.270;7.956;2022-11-14T03:46:44;35.65;;;24.27;;
64297;SDS011;50639;53.270;7.956;2022-11-14T03:49:28;31.17;;;21.90;;
64297;SDS011;50639;53.270;7.956;2022-11-14T03:52:12;34.25;;;22.67;;
64297;SDS011;50639;53.270;7.956;2022-11-14T03:54:57;34.55;;;22.55;;
64297;SDS011;50639;53.270;7.956;2022-11-14T03:57:40;36.92;;;22.67;;
64297;SDS011;50639;53.270;7.956;2022-11-14T04:00:25;37.42;;;23.80;;
64297;SDS011;50639;53.270;7.956;2022-11-14T04:03:11;35.80;;;24.33;;
64297;SDS011;50639;53.270;7.956;2022-11-14T04:05:55;35.47;;;23.17;;
64297;SDS011;50639;53.270;7.956;2022-11-14T04:08:39;34.85;;;23.60;;
64297;SDS011;50639;53.270;7.956;2022-11-14T04:11:24;30.13;;;22.38;;
64297;SDS011;50639;53.270;7.956;2022-11-14T04:14:08;31.10;;;22.20;;
64297;SDS011;50639;53.270;7.956;2022-11-14T04:16:52;35.28;;;22.98;;
64297;SDS011;50639;53.270;7.956;2022-11-14T04:19:36;36.80;;;22.63;;
64297;SDS011;50639;53.270;7.956;2022-11-14T04:22:20;33.78;;;22.55;;
64297;SDS011;50639;53.270;7.956;2022-11-14T04:25:05;33.47;;;22.25;;
64297;SDS011;50639;53.270;7.956;2022-11-14T04:27:49;33.33;;;22.10;;
64297;SDS011;50639;53.270;7.956;2022-11-14T04:30:34;38.38;;;22.38;;
64297;SDS011;50639;53.270;7.956;2022-11-14T04:33:18;37.08;;;23.08;;
64297;SDS011;50639;53.270;7.956;2022-11-14T04:36:02;37.65;;;23.48;;
64297;SDS011;50639;53.270;7.956;2022-11-14T04:38:46;32.47;;;22.25;;
64297;SDS011;50639;53.270;7.956;2022-11-14T04:41:31;32.90;;;22.55;;
64297;SDS011;50639;53.270;7.956;2022-11-14T04:44:15;34.38;;;22.05;;
64297;SDS011;50639;53.270;7.956;2022-11-14T04:46:59;37.50;;;23.27;;
64297;SDS011;50639;53.270;7.956;2022-11-14T04:49:43;35.20;;;22.92;;
64297;SDS011;50639;53.270;7.956;2022-11-14T04:52:27;32.80;;;21.30;;
64297;SDS011;50639;53.270;7.956;2022-11-14T04:55:11;34.58;;;22.27;;
64297;SDS011;50639;53.270;7.956;2022-11-14T04:57:55;33.30;;;21.77;;
64297;SDS011;50639;53.270;7.956;2022-11-14T05:00:40;37.97;;;23.05;;
64297;SDS011;50639;53.270;7.956;2022-11-14T05:03:24;35.67;;;22.48;;
64297;SDS011;50639;53.270;7.956;2022-11-14T05:06:08;35.08;;;22.90;;
64297;SDS011;50639;53.270;7.956;2022-11-14T05:08:52;35.42;;;22.73;;
64297;SDS011;50639;53.270;7.956;2022-11-14T05:11:36;37.60;;;23.05;;
64297;SDS011;50639;53.270;7.956;2022-11-14T05:14:20;33.03;;;21.98;;
64297;SDS011;50639;53.270;7.956;2022-11-14T05:17:04;32.72;;;21.23;;
64297;SDS011;50639;53.270;7.956;2022-11-14T05:19:49;33.30;;;21.98;;
64297;SDS011;50639;53.270;7.956;2022-11-14T05:22:33;31.08;;;21.55;;
64297;SDS011;50639;53.270;7.956;2022-11-14T05:25:17;35.05;;;23.40;;
64297;SDS011;50639;53.270;7.956;2022-11-14T05:28:01;35.65;;;22.92;;
64297;SDS011;50639;53.270;7.956;2022-11-14T05:30:45;38.53;;;22.23;;
64297;SDS011;50639;53.270;7.956;2022-11-14T05:33:29;32.33;;;21.88;;
64297;SDS011;50639;53.270;7.956;2022-11-14T05:36:14;34.38;;;23.02;;
64297;SDS011;50639;53.270;7.956;2022-11-14T05:38:59;35.53;;;22.13;;
64297;SDS011;50639;53.270;7.956;2022-11-14T05:41:43;35.40;;;21.48;;
64297;SDS011;50639;53.270;7.956;2022-11-14T05:44:27;34.00;;;22.70;;
64297;SDS011;50639;53.270;7.956;2022-11-14T05:47:11;36.10;;;22.45;;
64297;SDS011;50639;53.270;7.956;2022-11-14T05:49:55;36.72;;;22.83;;
64297;SDS011;50639;53.270;7.956;2022-11-14T05:52:39;35.92;;;23.25;;
64297;SDS011;50639;53.270;7.956;2022-11-14T05:55:23;35.17;;;21.75;;
64297;SDS011;50639;53.270;7.956;2022-11-14T05:58:08;33.47;;;20.33;;
64297;SDS011;50639;53.270;7.956;2022-11-14T06:00:52;32.65;;;21.52;;
64297;SDS011;50639;53.270;7.956;2022-11-14T06:03:37;34.60;;;21.80;;
64297;SDS011;50639;53.270;7.956;2022-11-14T06:06:21;33.55;;;21.83;;
64297;SDS011;50639;53.270;7.956;2022-11-14T06:09:05;39.33;;;25.00;;
64297;SDS011;50639;53.270;7.956;2022-11-14T06:11:49;36.20;;;22.67;;
64297;SDS011;50639;53.270;7.956;2022-11-14T06:14:33;38.95;;;22.67;;
64297;SDS011;50639;53.270;7.956;2022-11-14T06:17:17;36.22;;;23.23;;
64297;SDS011;50639;53.270;7.956;2022-11-14T06:20:01;40.22;;;24.83;;
64297;SDS011;50639;53.270;7.956;2022-11-14T06:22:45;35.42;;;22.75;;
64297;SDS011;50639;53.270;7.956;2022-11-14T06:25:29;37.08;;;22.67;;
64297;SDS011;50639;53.270;7.956;2022-11-14T06:28:13;38.22;;;22.80;;
64297;SDS011;50639;53.270;7.956;2022-11-14T06:31:01;34.72;;;22.33;;
64297;SDS011;50639;53.270;7.956;2022-11-14T06:33:45;35.80;;;22.80;;
64297;SDS011;50639;53.270;7.956;2022-11-14T06:36:29;34.97;;;22.63;;
64297;SDS011;50639;53.270;7.956;2022-11-14T06:39:14;37.10;;;23.38;;
64297;SDS011;50639;53.270;7.956;2022-11-14T06:41:58;40.45;;;26.45;;
64297;SDS011;50639;53.270;7.956;2022-11-14T06:44:42;38.88;;;24.63;;
64297;SDS011;50639;53.270;7.956;2022-11-14T06:47:26;37.65;;;23.80;;
64297;SDS011;50639;53.270;7.956;2022-11-14T06:50:10;39.15;;;24.75;;
64297;SDS011;50639;53.270;7.956;2022-11-14T06:52:56;39.65;;;23.67;;
64297;SDS011;50639;53.270;7.956;2022-11-14T06:55:41;41.58;;;24.88;;
64297;SDS011;50639;53.270;7.956;2022-11-14T06:58:29;39.10;;;23.38;;
64297;SDS011;50639;53.270;7.956;2022-11-14T07:01:17;37.78;;;23.88;;
64297;SDS011;50639;53.270;7.956;2022-11-14T07:04:01;38.25;;;24.00;;
64297;SDS011;50639;53.270;7.956;2022-11-14T07:06:45;37.95;;;23.92;;
64297;SDS011;50639;53.270;7.956;2022-11-14T07:09:29;43.97;;;25.70;;
64297;SDS011;50639;53.270;7.956;2022-11-14T07:12:13;38.83;;;24.38;;
64297;SDS011;50639;53.270;7.956;2022-11-14T07:14:57;35.55;;;23.50;;
64297;SDS011;50639;53.270;7.956;2022-11-14T07:17:41;40.72;;;23.38;;
64297;SDS011;50639;53.270;7.956;2022-11-14T07:20:25;42.50;;;24.77;;
64297;SDS011;50639;53.270;7.956;2022-11-14T07:23:09;40.08;;;23.90;;
64297;SDS011;50639;53.270;7.956;2022-11-14T07:25:53;41.13;;;24.77;;
64297;SDS011;50639;53.270;7.956;2022-11-14T07:28:42;40.00;;;24.48;;
64297;SDS011;50639;53.270;7.956;2022-11-14T07:31:26;36.50;;;23.55;;
64297;SDS011;50639;53.270;7.956;2022-11-14T07:34:10;41.70;;;25.60;;
64297;SDS011;50639;53.270;7.956;2022-11-14T07:36:54;42.60;;;24.30;;
64297;SDS011;50639;53.270;7.956;2022-11-14T07:39:38;39.20;;;24.08;;
64297;SDS011;50639;53.270;7.956;2022-11-14T07:42:22;41.78;;;23.50;;
64297;SDS011;50639;53.270;7.956;2022-11-14T07:45:07;39.10;;;24.13;;
64297;SDS011;50639;53.270;7.956;2022-11-14T07:47:55;41.45;;;24.15;;
64297;SDS011;50639;53.270;7.956;2022-11-14T07:50:39;38.25;;;22.48;;
64297;SDS011;50639;53.270;7.956;2022-11-14T07:53:23;37.17;;;23.67;;
64297;SDS011;50639;53.270;7.956;2022-11-14T07:56:08;41.17;;;23.17;;
64297;SDS011;50639;53.270;7.956;2022-11-14T07:58:52;37.42;;;23.02;;
64297;SDS011;50639;53.270;7.956;2022-11-14T08:01:36;40.78;;;23.75;;
64297;SDS011;50639;53.270;7.956;2022-11-14T08:04:20;38.10;;;23.17;;
64297;SDS011;50639;53.270;7.956;2022-11-14T08:07:04;37.92;;;24.25;;
64297;SDS011;50639;53.270;7.956;2022-11-14T08:09:48;40.25;;;23.58;;
64297;SDS011;50639;53.270;7.956;2022-11-14T08:12:32;43.25;;;24.90;;
64297;SDS011;50639;53.270;7.956;2022-11-14T08:15:16;43.00;;;23.92;;
64297;SDS011;50639;53.270;7.956;2022-11-14T08:18:00;39.80;;;24.58;;
64297;SDS011;50639;53.270;7.956;2022-11-14T08:20:44;41.35;;;22.88;;
64297;SDS011;50639;53.270;7.956;2022-11-14T08:23:28;42.00;;;25.45;;
64297;SDS011;50639;53.270;7.956;2022-11-14T08:26:13;38.85;;;23.67;;
64297;SDS011;50639;53.270;7.956;2022-11-14T08:28:57;38.80;;;23.30;;
64297;SDS011;50639;53.270;7.956;2022-11-14T08:31:41;42.75;;;23.38;;
64297;SDS011;50639;53.270;7.956;2022-11-14T08:34:24;40.45;;;23.30;;
64297;SDS011;50639;53.270;7.956;2022-11-14T08:37:08;43.88;;;23.95;;
64297;SDS011;50639;53.270;7.956;2022-11-14T08:39:53;42.03;;;24.90;;
64297;SDS011;50639;53.270;7.956;2022-11-14T08:42:37;38.85;;;23.13;;
64297;SDS011;50639;53.270;7.956;2022-11-14T08:45:21;39.83;;;24.15;;
64297;SDS011;50639;53.270;7.956;2022-11-14T08:48:05;40.35;;;23.77;;
64297;SDS011;50639;53.270;7.956;2022-11-14T08:50:50;36.17;;;22.58;;
64297;SDS011;50639;53.270;7.956;2022-11-14T08:53:34;37.03;;;23.08;;
64297;SDS011;50639;53.270;7.956;2022-11-14T08:56:18;39.83;;;23.40;;
64297;SDS011;50639;53.270;7.956;2022-11-14T08:59:02;37.67;;;23.05;;
64297;SDS011;50639;53.270;7.956;2022-11-14T09:01:47;37.80;;;23.42;;
64297;SDS011;50639;53.270;7.956;2022-11-14T09:04:30;37.88;;;24.27;;
64297;SDS011;50639;53.270;7.956;2022-11-14T09:07:14;40.22;;;23.17;;
64297;SDS011;50639;53.270;7.956;2022-11-14T09:09:58;41.83;;;24.10;;
64297;SDS011;50639;53.270;7.956;2022-11-14T09:12:42;40.60;;;23.75;;
64297;SDS011;50639;53.270;7.956;2022-11-14T09:15:27;37.70;;;23.48;;
64297;SDS011;50639;53.270;7.956;2022-11-14T09:18:11;37.17;;;23.67;;
64297;SDS011;50639;53.270;7.956;2022-11-14T09:21:02;40.85;;;22.63;;
64297;SDS011;50639;53.270;7.956;2022-11-14T09:23:46;40.15;;;25.33;;
64297;SDS011;50639;53.270;7.956;2022-11-14T09:26:30;41.90;;;23.88;;
64297;SDS011;50639;53.270;7.956;2022-11-14T09:29:14;38.80;;;23.40;;
64297;SDS011;50639;53.270;7.956;2022-11-14T09:31:58;43.67;;;23.48;;
64297;SDS011;50639;53.270;7.956;2022-11-14T09:34:42;40.97;;;24.33;;
64297;SDS011;50639;53.270;7.956;2022-11-14T09:37:28;45.58;;;24.38;;
64297;SDS011;50639;53.270;7.956;2022-11-14T09:40:12;40.13;;;24.58;;
64297;SDS011;50639;53.270;7.956;2022-11-14T09:45:46;39.05;;;23.60;;
64297;SDS011;50639;53.270;7.956;2022-11-14T09:48:32;39.67;;;24.45;;
64297;SDS011;50639;53.270;7.956;2022-11-14T09:51:20;43.35;;;25.05;;
64297;SDS011;50639;53.270;7.956;2022-11-14T09:56:58;39.20;;;22.55;;
64297;SDS011;50639;53.270;7.956;2022-11-14T09:59:42;41.15;;;23.73;;
64297;SDS011;50639;53.270;7.956;2022-11-14T10:11:43;40.17;;;22.98;;
64297;SDS011;50639;53.270;7.956;2022-11-14T10:17:32;43.08;;;23.70;;
64297;SDS011;50639;53.270;7.956;2022-11-14T10:20:23;42.85;;;23.48;;
64297;SDS011;50639;53.270;7.956;2022-11-14T10:25:54;41.45;;;23.50;;
64297;SDS011;50639;53.270;7.956;2022-11-14T10:29:29;38.90;;;23.17;;
64297;SDS011;50639;53.270;7.956;2022-11-14T10:35:00;39.85;;;24.60;;
64297;SDS011;50639;53.270;7.956;2022-11-14T10:37:52;39.97;;;22.95;;
64297;SDS011;50639;53.270;7.956;2022-11-14T10:40:48;39.35;;;23.88;;
64297;SDS011;50639;53.270;7.956;2022-11-14T10:46:27;45.28;;;23.75;;
64297;SDS011;50639;53.270;7.956;2022-11-14T10:49:23;40.30;;;23.60;;
64297;SDS011;50639;53.270;7.956;2022-11-14T10:52:11;39.40;;;23.20;;
64297;SDS011;50639;53.270;7.956;2022-11-14T10:54:57;39.55;;;23.70;;
64297;SDS011;50639;53.270;7.956;2022-11-14T10:57:45;41.00;;;24.02;;
64297;SDS011;50639;53.270;7.956;2022-11-14T11:00:30;41.72;;;24.33;;
64297;SDS011;50639;53.270;7.956;2022-11-14T11:03:14;42.47;;;23.73;;
64297;SDS011;50639;53.270;7.956;2022-11-14T11:05:59;39.40;;;24.38;;
64297;SDS011;50639;53.270;7.956;2022-11-14T11:08:43;40.35;;;25.45;;
64297;SDS011;50639;53.270;7.956;2022-11-14T11:11:59;37.33;;;23.30;;
64297;SDS011;50639;53.270;7.956;2022-11-14T11:14:45;38.05;;;24.00;;
64297;SDS011;50639;53.270;7.956;2022-11-14T11:17:29;42.03;;;24.30;;
64297;SDS011;50639;53.270;7.956;2022-11-14T11:23:17;48.03;;;25.80;;
64297;SDS011;50639;53.270;7.956;2022-11-14T11:26:06;36.33;;;23.15;;
64297;SDS011;50639;53.270;7.956;2022-11-14T11:29:02;39.17;;;23.60;;
64297;SDS011;50639;53.270;7.956;2022-11-14T11:34:34;37.88;;;23.55;;
64297;SDS011;50639;53.270;7.956;2022-11-14T11:37:29;37.15;;;24.05;;
64297;SDS011;50639;53.270;7.956;2022-11-14T11:40:16;41.50;;;24.50;;
64297;SDS011;50639;53.270;7.956;2022-11-14T11:46:10;35.97;;;23.08;;
64297;SDS011;50639;53.270;7.956;2022-11-14T11:48:58;39.45;;;22.75;;
64297;SDS011;50639;53.270;7.956;2022-11-14T11:51:45;42.15;;;22.45;;
64297;SDS011;50639;53.270;7.956;2022-11-14T11:54:32;39.75;;;23.88;;
64297;SDS011;50639;53.270;7.956;2022-11-14T11:57:18;37.38;;;23.42;;
64297;SDS011;50639;53.270;7.956;2022-11-14T12:00:13;37.78;;;23.08;;
64297;SDS011;50639;53.270;7.956;2022-11-14T12:02:57;38.38;;;22.80;;
64297;SDS011;50639;53.270;7.956;2022-11-14T12:11:52;40.13;;;23.10;;
64297;SDS011;50639;53.270;7.956;2022-11-14T12:14:48;36.35;;;21.95;;
64297;SDS011;50639;53.270;7.956;2022-11-14T12:23:31;36.85;;;22.27;;
64297;SDS011;50639;53.270;7.956;2022-11-14T12:26:25;37.05;;;22.00;;
64297;SDS011;50639;53.270;7.956;2022-11-14T12:32:05;41.60;;;23.67;;
64297;SDS011;50639;53.270;7.956;2022-11-14T12:34:49;36.70;;;21.92;;
64297;SDS011;50639;53.270;7.956;2022-11-14T12:37:34;33.03;;;21.25;;
64297;SDS011;50639;53.270;7.956;2022-11-14T12:40:28;35.25;;;22.02;;
64297;SDS011;50639;53.270;7.956;2022-11-14T12:43:33;36.20;;;21.58;;
64297;SDS011;50639;53.270;7.956;2022-11-14T12:46:17;33.83;;;20.95;;
64297;SDS011;50639;53.270;7.956;2022-11-14T12:49:01;34.45;;;22.08;;
64297;SDS011;50639;53.270;7.956;2022-11-14T12:52:14;31.65;;;19.83;;
64297;SDS011;50639;53.270;7.956;2022-11-14T12:55:51;35.75;;;20.85;;
64297;SDS011;50639;53.270;7.956;2022-11-14T13:02:05;36.38;;;21.52;;
64297;SDS011;50639;53.270;7.956;2022-11-14T13:10:36;31.50;;;19.98;;
64297;SDS011;50639;53.270;7.956;2022-11-14T13:13:22;32.45;;;19.83;;
64297;SDS011;50639;53.270;7.956;2022-11-14T13:19:17;31.05;;;19.55;;
64297;SDS011;50639;53.270;7.956;2022-11-14T13:25:36;35.97;;;21.00;;
64297;SDS011;50639;53.270;7.956;2022-11-14T13:28:53;32.78;;;21.00;;
64297;SDS011;50639;53.270;7.956;2022-11-14T13:40:12;33.30;;;20.73;;
64297;SDS011;50639;53.270;7.956;2022-11-14T13:43:08;32.10;;;21.67;;
64297;SDS011;50639;53.270;7.956;2022-11-14T13:51:54;33.35;;;20.65;;
64297;SDS011;50639;53.270;7.956;2022-11-14T13:54:48;37.42;;;22.05;;
64297;SDS011;50639;53.270;7.956;2022-11-14T14:03:35;32.35;;;21.20;;
64297;SDS011;50639;53.270;7.956;2022-11-14T14:09:19;31.33;;;20.77;;
64297;SDS011;50639;53.270;7.956;2022-11-14T14:18:09;38.45;;;22.13;;
64297;SDS011;50639;53.270;7.956;2022-11-14T14:21:07;35.40;;;22.48;;
64297;SDS011;50639;53.270;7.956;2022-11-14T14:27:00;33.55;;;21.08;;
64297;SDS011;50639;53.270;7.956;2022-11-14T14:29:56;35.20;;;21.25;;
64297;SDS011;50639;53.270;7.956;2022-11-14T14:35:28;33.20;;;21.02;;
64297;SDS011;50639;53.270;7.956;2022-11-14T14:38:20;34.72;;;20.83;;
64297;SDS011;50639;53.270;7.956;2022-11-14T14:41:04;35.15;;;21.83;;
64297;SDS011;50639;53.270;7.956;2022-11-14T14:43:50;33.33;;;20.88;;
64297;SDS011;50639;53.270;7.956;2022-11-14T14:46:35;35.58;;;21.02;;
64297;SDS011;50639;53.270;7.956;2022-11-14T14:49:24;33.17;;;21.23;;
64297;SDS011;50639;53.270;7.956;2022-11-14T15:00:57;36.38;;;22.20;;
64297;SDS011;50639;53.270;7.956;2022-11-14T15:03:49;38.45;;;22.70;;
64297;SDS011;50639;53.270;7.956;2022-11-14T15:06:35;35.60;;;21.48;;
64297;SDS011;50639;53.270;7.956;2022-11-14T15:09:20;38.47;;;23.02;;
64297;SDS011;50639;53.270;7.956;2022-11-14T15:12:04;40.17;;;24.13;;
64297;SDS011;50639;53.270;7.956;2022-11-14T15:14:48;37.15;;;23.23;;
64297;SDS011;50639;53.270;7.956;2022-11-14T15:17:32;37.78;;;22.85;;
64297;SDS011;50639;53.270;7.956;2022-11-14T15:20:24;33.90;;;21.02;;
64297;SDS011;50639;53.270;7.956;2022-11-14T15:26:01;39.65;;;24.13;;
64297;SDS011;50639;53.270;7.956;2022-11-14T15:28:46;41.70;;;23.60;;
64297;SDS011;50639;53.270;7.956;2022-11-14T15:31:30;41.85;;;23.25;;
64297;SDS011;50639;53.270;7.956;2022-11-14T15:34:31;42.88;;;23.60;;
64297;SDS011;50639;53.270;7.956;2022-11-14T15:42:59;38.42;;;22.27;;
64297;SDS011;50639;53.270;7.956;2022-11-14T15:45:44;44.25;;;24.67;;
64297;SDS011;50639;53.270;7.956;2022-11-14T15:48:28;44.88;;;24.52;;
64297;SDS011;50639;53.270;7.956;2022-11-14T15:51:19;45.22;;;25.02;;
64297;SDS011;50639;53.270;7.956;2022-11-14T15:54:33;36.40;;;22.13;;
64297;SDS011;50639;53.270;7.956;2022-11-14T15:57:18;45.67;;;26.52;;
64297;SDS011;50639;53.270;7.956;2022-11-14T16:00:03;46.72;;;26.75;;
64297;SDS011;50639;53.270;7.956;2022-11-14T16:02:48;42.60;;;25.20;;
64297;SDS011;50639;53.270;7.956;2022-11-14T16:05:33;45.22;;;27.23;;
64297;SDS011;50639;53.270;7.956;2022-11-14T16:08:17;46.53;;;26.52;;
64297;SDS011;50639;53.270;7.956;2022-11-14T16:11:01;45.78;;;26.38;;
64297;SDS011;50639;53.270;7.956;2022-11-14T16:13:45;47.63;;;27.25;;
64297;SDS011;50639;53.270;7.956;2022-11-14T16:16:29;43.33;;;26.00;;
64297;SDS011;50639;53.270;7.956;2022-11-14T16:19:14;50.63;;;27.25;;
64297;SDS011;50639;53.270;7.956;2022-11-14T16:21:59;47.42;;;26.73;;
64297;SDS011;50639;53.270;7.956;2022-11-14T16:27:29;47.78;;;28.10;;
64297;SDS011;50639;53.270;7.956;2022-11-14T16:30:14;44.00;;;27.00;;
64297;SDS011;50639;53.270;7.956;2022-11-14T16:32:58;45.25;;;26.17;;
64297;SDS011;50639;53.270;7.956;2022-11-14T16:35:42;45.95;;;26.73;;
64297;SDS011;50639;53.270;7.956;2022-11-14T16:38:26;44.22;;;27.55;;
64297;SDS011;50639;53.270;7.956;2022-11-14T16:41:10;45.72;;;26.20;;
64297;SDS011;50639;53.270;7.956;2022-11-14T16:43:56;50.67;;;28.60;;
64297;SDS011;50639;53.270;7.956;2022-11-14T16:46:41;43.33;;;27.10;;
64297;SDS011;50639;53.270;7.956;2022-11-14T16:49:25;43.78;;;25.58;;
64297;SDS011;50639;53.270;7.956;2022-11-14T16:52:09;45.83;;;26.10;;
64297;SDS011;50639;53.270;7.956;2022-11-14T16:54:54;42.22;;;26.23;;
64297;SDS011;50639;53.270;7.956;2022-11-14T16:57:37;43.30;;;26.63;;
64297;SDS011;50639;53.270;7.956;2022-11-14T17:00:21;42.55;;;26.60;;
64297;SDS011;50639;53.270;7.956;2022-11-14T17:03:06;43.78;;;26.50;;
64297;SDS011;50639;53.270;7.956;2022-11-14T17:05:50;40.10;;;24.55;;
64297;SDS011;50639;53.270;7.956;2022-11-14T17:08:35;44.78;;;26.05;;
64297;SDS011;50639;53.270;7.956;2022-11-14T17:11:19;39.22;;;22.75;;
64297;SDS011;50639;53.270;7.956;2022-11-14T17:14:03;42.55;;;23.95;;
64297;SDS011;50639;53.270;7.956;2022-11-14T17:16:47;37.88;;;24.90;;
64297;SDS011;50639;53.270;7.956;2022-11-14T17:19:31;43.95;;;26.00;;
64297;SDS011;50639;53.270;7.956;2022-11-14T17:22:16;42.03;;;24.55;;
64297;SDS011;50639;53.270;7.956;2022-11-14T17:25:00;41.95;;;24.13;;
64297;SDS011;50639;53.270;7.956;2022-11-14T17:27:45;35.17;;;23.05;;
64297;SDS011;50639;53.270;7.956;2022-11-14T17:30:32;43.90;;;25.73;;
64297;SDS011;50639;53.270;7.956;2022-11-14T17:33:18;37.08;;;24.60;;
64297;SDS011;50639;53.270;7.956;2022-11-14T17:36:03;41.55;;;23.65;;
64297;SDS011;50639;53.270;7.956;2022-11-14T17:38:47;39.63;;;23.67;;
64297;SDS011;50639;53.270;7.956;2022-11-14T17:41:31;41.67;;;23.30;;
64297;SDS011;50639;53.270;7.956;2022-11-14T17:44:16;40.03;;;23.23;;
64297;SDS011;50639;53.270;7.956;2022-11-14T17:47:00;35.97;;;23.35;;
64297;SDS011;50639;53.270;7.956;2022-11-14T17:49:44;41.00;;;24.08;;
64297;SDS011;50639;53.270;7.956;2022-11-14T17:52:28;40.28;;;24.60;;
64297;SDS011;50639;53.270;7.956;2022-11-14T17:55:12;41.05;;;24.33;;
64297;SDS011;50639;53.270;7.956;2022-11-14T17:57:56;37.70;;;23.42;;
64297;SDS011;50639;53.270;7.956;2022-11-14T18:00:40;36.85;;;23.95;;
64297;SDS011;50639;53.270;7.956;2022-11-14T18:03:24;40.95;;;23.42;;
64297;SDS011;50639;53.270;7.956;2022-11-14T18:06:10;37.10;;;23.00;;
64297;SDS011;50639;53.270;7.956;2022-11-14T18:08:54;42.75;;;23.98;;
64297;SDS011;50639;53.270;7.956;2022-11-14T18:11:38;37.47;;;23.10;;
64297;SDS011;50639;53.270;7.956;2022-11-14T18:14:27;41.70;;;25.13;;
64297;SDS011;50639;53.270;7.956;2022-11-14T18:17:11;39.60;;;23.57;;